createdAt,value
2023-01-29T00:01:54.239Z,11.82
2023-01-29T00:04:21.055Z,12.50
2023-01-29T00:06:47.732Z,11.48
2023-01-29T00:09:14.799Z,11.52
2023-01-29T00:11:41.584Z,13.68
2023-01-29T00:14:09.493Z,11.15
2023-01-29T00:16:36.327Z,11.07
2023-01-29T00:19:03.693Z,12.63
2023-01-29T00:21:31.083Z,10.70
2023-01-29T00:23:58.686Z,11.98
2023-01-29T00:26:25.883Z,12.15
2023-01-29T00:28:52.640Z,13.85
2023-01-29T00:31:21.856Z,14.30
2023-01-29T00:33:49.553Z,13.60
2023-01-29T00:36:18.970Z,12.20
2023-01-29T00:38:54.495Z,13.93
2023-01-29T00:41:41.079Z,12.05
2023-01-29T00:44:26.604Z,13.90
2023-01-29T00:46:53.547Z,11.90
2023-01-29T00:49:20.461Z,11.48
2023-01-29T00:52:09.896Z,13.45
2023-01-29T00:54:37.047Z,10.48
2023-01-29T00:57:04.432Z,11.48
2023-01-29T00:59:31.372Z,15.02
2023-01-29T01:02:17.195Z,13.05
2023-01-29T01:04:44.019Z,13.98
2023-01-29T01:09:56.119Z,12.60
2023-01-29T01:12:23.283Z,16.30
2023-01-29T01:14:50.350Z,13.55
2023-01-29T01:17:17.523Z,13.18
2023-01-29T01:19:44.311Z,13.90
2023-01-29T01:22:11.299Z,16.48
2023-01-29T01:24:38.630Z,15.30
2023-01-29T01:27:05.810Z,15.13
2023-01-29T01:29:32.857Z,17.27
2023-01-29T01:31:59.783Z,21.13
2023-01-29T01:34:27.185Z,15.88
2023-01-29T01:36:56.036Z,13.93
2023-01-29T01:39:23.520Z,13.30
2023-01-29T01:41:50.981Z,14.63
2023-01-29T01:45:15.061Z,14.73
2023-01-29T01:47:46.916Z,14.98
2023-01-29T01:50:23.043Z,16.48
2023-01-29T01:52:54.806Z,16.17
2023-01-29T01:55:26.707Z,15.77
2023-01-29T01:58:16.755Z,18.02
2023-01-29T02:00:43.669Z,18.35
2023-01-29T02:03:30.076Z,18.75
2023-01-29T02:06:17.660Z,14.60
2023-01-29T02:09:18.667Z,15.75
2023-01-29T02:11:45.467Z,12.85
2023-01-29T02:14:12.627Z,14.80
2023-01-29T02:16:39.409Z,18.08
2023-01-29T02:19:16.476Z,20.25
2023-01-29T02:22:22.804Z,20.40
2023-01-29T02:25:33.745Z,19.25
2023-01-29T02:28:12.306Z,15.00
2023-01-29T02:31:19.255Z,12.48
2023-01-29T02:34:15.141Z,15.65
2023-01-29T02:37:03.317Z,18.63
2023-01-29T02:39:36.837Z,12.43
2023-01-29T02:42:18.629Z,16.90
2023-01-29T02:44:52.155Z,14.57
2023-01-29T02:47:29.067Z,14.55
2023-01-29T02:50:11.131Z,16.45
2023-01-29T02:52:54.241Z,23.20
2023-01-29T02:55:53.160Z,17.10
2023-01-29T02:58:56.039Z,16.15
2023-01-29T03:01:30.348Z,13.13
2023-01-29T03:04:03.176Z,19.75
2023-01-29T03:06:37.955Z,14.52
2023-01-29T03:09:09.509Z,14.68
2023-01-29T03:11:46.911Z,18.17
2023-01-29T03:14:23.346Z,16.92
2023-01-29T03:16:52.073Z,18.98
2023-01-29T03:19:21.492Z,16.70
2023-01-29T03:22:00.984Z,14.10
2023-01-29T03:24:57.238Z,17.05
2023-01-29T03:27:48.256Z,15.60
2023-01-29T03:30:37.134Z,18.17
2023-01-29T03:33:08.268Z,16.98
2023-01-29T03:35:40.610Z,14.23
2023-01-29T03:38:11.702Z,18.90
2023-01-29T03:41:23.337Z,15.75
2023-01-29T03:43:54.942Z,20.08
2023-01-29T03:46:51.099Z,14.47
2023-01-29T03:49:45.741Z,15.32
2023-01-29T03:52:42.754Z,15.02
2023-01-29T03:55:12.234Z,16.88
2023-01-29T03:57:41.896Z,17.13
2023-01-29T04:00:21.312Z,18.50
2023-01-29T04:02:58.828Z,13.77
2023-01-29T04:05:32.066Z,16.88
2023-01-29T04:08:06.783Z,21.98
2023-01-29T04:10:36.174Z,15.73
2023-01-29T04:13:07.582Z,17.10
2023-01-29T04:15:40.289Z,17.90
2023-01-29T04:18:07.198Z,23.20
2023-01-29T04:20:35.624Z,17.20
2023-01-29T04:23:06.064Z,18.30
2023-01-29T04:25:45.615Z,17.35
2023-01-29T04:28:24.932Z,18.98
2023-01-29T04:31:08.395Z,15.57
2023-01-29T04:34:00.031Z,18.73
2023-01-29T04:36:46.378Z,15.48
2023-01-29T04:39:28.329Z,17.95
2023-01-29T04:42:07.315Z,17.05
2023-01-29T04:44:44.634Z,17.13
2023-01-29T04:47:55.879Z,18.10
2023-01-29T04:50:32.095Z,15.45
2023-01-29T04:53:18.571Z,16.02
2023-01-29T04:55:56.833Z,17.98
2023-01-29T04:58:36.019Z,19.77
2023-01-29T05:01:07.058Z,18.48
2023-01-29T05:03:36.963Z,12.98
2023-01-29T05:06:05.799Z,17.75
2023-01-29T05:08:33.968Z,16.55
2023-01-29T05:11:00.684Z,18.90
2023-01-29T05:13:31.280Z,15.85
2023-01-29T05:16:04.747Z,14.10
2023-01-29T05:18:32.241Z,14.38
2023-01-29T05:21:02.978Z,15.80
2023-01-29T05:23:29.661Z,18.10
2023-01-29T05:25:56.945Z,14.02
2023-01-29T05:28:23.995Z,13.90
2023-01-29T05:30:53.184Z,15.88
2023-01-29T05:33:28.715Z,17.08
2023-01-29T05:35:56.545Z,18.05
2023-01-29T05:38:23.403Z,16.27
2023-01-29T05:40:50.140Z,14.27
2023-01-29T05:43:19.385Z,16.15
2023-01-29T05:45:59.950Z,14.98
2023-01-29T05:48:28.953Z,14.57
2023-01-29T05:51:01.085Z,13.60
2023-01-29T05:53:29.750Z,10.90
2023-01-29T05:55:57.260Z,14.73
2023-01-29T05:58:24.596Z,14.93
2023-01-29T06:00:51.298Z,13.23
2023-01-29T06:03:17.987Z,12.48
2023-01-29T06:05:44.933Z,14.15
2023-01-29T06:08:12.026Z,13.18
2023-01-29T06:10:38.830Z,15.98
2023-01-29T06:13:05.541Z,12.60
2023-01-29T06:15:32.276Z,14.27
2023-01-29T06:17:58.933Z,12.68
2023-01-29T06:20:26.070Z,12.23
2023-01-29T06:22:52.772Z,12.50
2023-01-29T06:25:19.443Z,13.88
2023-01-29T06:27:46.169Z,17.55
2023-01-29T06:30:13.259Z,9.77
2023-01-29T06:32:39.957Z,10.55
2023-01-29T06:35:06.966Z,11.45
2023-01-29T06:37:33.627Z,12.15
2023-01-29T06:40:00.296Z,10.75
2023-01-29T06:42:28.109Z,9.25
2023-01-29T06:44:58.198Z,11.05
2023-01-29T06:47:26.809Z,10.07
2023-01-29T06:49:53.612Z,8.73
2023-01-29T06:52:20.286Z,8.70
2023-01-29T06:54:47.365Z,8.57
2023-01-29T06:57:14.086Z,7.68
2023-01-29T06:59:40.740Z,8.27
2023-01-29T07:02:07.463Z,9.35
2023-01-29T07:04:35.507Z,6.70
2023-01-29T07:07:02.246Z,8.90
2023-01-29T07:09:28.951Z,5.85
2023-01-29T07:11:55.619Z,8.95
2023-01-29T07:14:22.400Z,6.20
2023-01-29T07:16:49.071Z,9.30
2023-01-29T07:19:15.813Z,6.53
2023-01-29T07:21:42.489Z,9.50
2023-01-29T07:24:09.474Z,6.32
2023-01-29T07:26:36.216Z,5.13
2023-01-29T07:29:05.058Z,8.73
2023-01-29T07:31:31.812Z,8.98
2023-01-29T07:33:58.534Z,5.00
2023-01-29T07:36:25.181Z,5.90
2023-01-29T07:38:51.925Z,4.80
2023-01-29T07:41:18.912Z,7.40
2023-01-29T07:43:45.678Z,5.90
2023-01-29T07:46:12.431Z,4.53
2023-01-29T07:48:39.167Z,9.80
2023-01-29T07:51:06.473Z,7.60
2023-01-29T07:53:33.356Z,7.68
2023-01-29T07:56:00.129Z,5.07
2023-01-29T07:58:26.893Z,5.30
2023-01-29T08:00:53.597Z,6.22
2023-01-29T08:03:20.793Z,4.72
2023-01-29T08:05:47.966Z,8.13
2023-01-29T08:08:15.228Z,5.70
2023-01-29T08:10:42.448Z,6.15
2023-01-29T08:13:09.783Z,6.03
2023-01-29T08:15:39.085Z,6.22
2023-01-29T08:18:23.540Z,8.68
2023-01-29T08:20:50.242Z,6.53
2023-01-29T08:23:17.442Z,5.47
2023-01-29T08:25:44.602Z,6.97
2023-01-29T08:28:12.381Z,9.93
2023-01-29T08:30:39.391Z,5.75
2023-01-29T08:33:06.792Z,6.28
2023-01-29T08:35:33.553Z,5.00
2023-01-29T08:38:03.246Z,5.55
2023-01-29T08:40:32.278Z,5.22
2023-01-29T08:43:06.030Z,8.60
2023-01-29T08:45:36.143Z,7.63
2023-01-29T08:48:03.418Z,7.10
2023-01-29T08:50:30.773Z,6.60
2023-01-29T08:52:59.341Z,7.90
2023-01-29T08:55:26.711Z,8.82
2023-01-29T08:57:53.751Z,7.90
2023-01-29T09:00:20.887Z,9.27
2023-01-29T09:02:47.609Z,9.15
2023-01-29T09:05:15.102Z,11.13
2023-01-29T09:07:42.057Z,6.43
2023-01-29T09:10:09.508Z,9.32
2023-01-29T09:12:36.196Z,7.72
2023-01-29T09:15:02.974Z,9.65
2023-01-29T09:17:29.635Z,16.30
2023-01-29T09:19:56.468Z,9.00
2023-01-29T09:22:23.114Z,7.45
2023-01-29T09:24:49.843Z,9.52
2023-01-29T09:27:16.519Z,16.48
2023-01-29T09:29:43.180Z,9.45
2023-01-29T09:32:09.872Z,8.75
2023-01-29T09:34:36.575Z,10.63
2023-01-29T09:37:03.290Z,6.97
2023-01-29T09:39:30.225Z,9.15
2023-01-29T09:42:00.175Z,7.63
2023-01-29T09:44:54.200Z,9.13
2023-01-29T09:47:23.400Z,8.88
2023-01-29T09:49:55.258Z,10.05
2023-01-29T09:52:32.650Z,8.95
2023-01-29T09:55:31.461Z,8.45
2023-01-29T09:58:06.062Z,9.52
2023-01-29T10:00:57.048Z,5.90
2023-01-29T10:03:33.509Z,6.60
2023-01-29T10:06:23.635Z,8.20
2023-01-29T10:08:53.442Z,6.80
2023-01-29T10:11:23.147Z,5.00
2023-01-29T10:14:08.088Z,5.45
2023-01-29T10:16:50.102Z,8.45
2023-01-29T10:19:45.203Z,8.63
2023-01-29T10:22:50.364Z,7.28
2023-01-29T10:25:20.533Z,5.18
2023-01-29T10:27:54.135Z,5.40
2023-01-29T10:30:22.781Z,7.18
2023-01-29T10:32:50.691Z,8.32
2023-01-29T10:35:28.388Z,9.35
2023-01-29T10:37:58.039Z,8.05
2023-01-29T10:40:39.332Z,8.70
2023-01-29T10:43:15.561Z,5.78
2023-01-29T10:46:00.442Z,8.48
2023-01-29T10:49:06.894Z,9.48
2023-01-29T10:52:04.658Z,6.60
2023-01-29T10:54:45.488Z,6.90
2023-01-29T10:57:40.461Z,8.30
2023-01-29T11:00:17.803Z,7.38
2023-01-29T11:02:46.446Z,9.15
2023-01-29T11:05:20.992Z,7.65
2023-01-29T11:07:49.604Z,7.00
2023-01-29T11:10:20.801Z,5.78
2023-01-29T11:12:47.752Z,7.50
2023-01-29T11:15:26.561Z,5.70
2023-01-29T11:18:04.813Z,7.25
2023-01-29T11:20:32.881Z,8.05
2023-01-29T11:23:00.356Z,8.02
2023-01-29T11:25:28.929Z,6.30
2023-01-29T11:28:00.506Z,6.20
2023-01-29T11:30:34.226Z,6.43
2023-01-29T11:33:12.522Z,11.15
2023-01-29T11:35:39.259Z,6.15
2023-01-29T11:38:18.434Z,6.85
2023-01-29T11:40:45.585Z,8.75
2023-01-29T11:43:18.251Z,11.32
2023-01-29T11:45:45.698Z,5.05
2023-01-29T11:48:18.210Z,9.25
2023-01-29T11:53:42.799Z,7.78
2023-01-29T11:56:21.171Z,7.55
2023-01-29T11:58:50.027Z,5.85
2023-01-29T12:01:24.110Z,6.93
2023-01-29T12:03:54.934Z,5.35
2023-01-29T12:06:21.643Z,5.82
2023-01-29T12:08:59.817Z,5.55
2023-01-29T12:11:32.482Z,7.45
2023-01-29T12:14:02.158Z,5.45
2023-01-29T12:16:52.111Z,5.70
2023-01-29T12:19:43.973Z,6.15
2023-01-29T12:22:24.913Z,4.65
2023-01-29T12:25:06.294Z,5.45
2023-01-29T12:27:57.613Z,6.35
2023-01-29T12:30:51.144Z,7.68
2023-01-29T12:33:50.822Z,8.98
2023-01-29T12:36:28.110Z,8.23
2023-01-29T12:38:55.952Z,5.22
2023-01-29T12:41:36.630Z,6.38
2023-01-29T12:44:11.697Z,5.85
2023-01-29T12:46:43.197Z,7.47
2023-01-29T12:49:22.402Z,9.15
2023-01-29T12:52:13.626Z,5.15
2023-01-29T12:54:48.012Z,4.45
2023-01-29T12:57:38.275Z,5.13
2023-01-29T13:00:18.123Z,4.07
2023-01-29T13:03:03.974Z,6.60
2023-01-29T13:05:41.130Z,5.35
2023-01-29T13:08:16.377Z,3.03
2023-01-29T13:10:48.855Z,4.00
2023-01-29T13:13:36.910Z,3.63
2023-01-29T13:16:12.479Z,3.83
2023-01-29T13:19:02.518Z,4.15
2023-01-29T13:21:39.621Z,5.45
2023-01-29T13:24:14.497Z,2.92
2023-01-29T13:26:45.954Z,4.25
2023-01-29T13:29:30.715Z,8.20
2023-01-29T13:32:04.598Z,2.03
2023-01-29T13:34:45.521Z,3.42
2023-01-29T13:37:29.533Z,1.90
2023-01-29T13:39:58.711Z,4.63
2023-01-29T13:42:39.656Z,2.88
2023-01-29T13:45:08.694Z,2.38
2023-01-29T13:47:38.999Z,2.90
2023-01-29T13:50:17.961Z,4.20
2023-01-29T13:52:53.141Z,3.33
2023-01-29T13:55:21.582Z,2.13
2023-01-29T13:57:49.480Z,1.85
2023-01-29T14:00:22.514Z,2.17
2023-01-29T14:03:11.692Z,1.55
2023-01-29T14:05:39.994Z,2.80
2023-01-29T14:08:09.519Z,5.82
2023-01-29T14:10:37.712Z,2.28
2023-01-29T14:13:04.396Z,1.38
2023-01-29T14:15:36.376Z,1.92
2023-01-29T14:18:08.967Z,2.88
2023-01-29T14:20:53.707Z,2.58
2023-01-29T14:23:41.788Z,1.23
2023-01-29T14:26:45.148Z,2.22
2023-01-29T14:29:34.609Z,2.47
2023-01-29T14:32:12.663Z,1.42
2023-01-29T14:34:49.809Z,1.95
2023-01-29T14:37:16.738Z,1.90
2023-01-29T14:39:45.689Z,2.20
2023-01-29T14:42:23.610Z,1.80
2023-01-29T14:45:08.211Z,1.63
2023-01-29T14:47:34.999Z,2.17
2023-01-29T14:50:22.774Z,1.38
2023-01-29T14:52:53.878Z,2.40
2023-01-29T14:55:29.677Z,1.98
2023-01-29T14:58:00.828Z,2.67
2023-01-29T15:00:34.248Z,2.17
2023-01-29T15:03:02.793Z,6.30
2023-01-29T15:05:36.090Z,1.23
2023-01-29T15:08:21.419Z,2.25
2023-01-29T15:11:15.904Z,1.38
2023-01-29T15:13:57.430Z,2.60
2023-01-29T15:17:18.614Z,4.18
2023-01-29T15:19:50.337Z,3.60
2023-01-29T15:22:22.287Z,8.00
2023-01-29T15:25:07.432Z,2.60
2023-01-29T15:27:34.750Z,3.92
2023-01-29T15:30:04.782Z,2.25
2023-01-29T15:32:37.432Z,6.38
2023-01-29T15:35:36.634Z,1.80
2023-01-29T15:38:06.173Z,3.67
2023-01-29T15:40:34.326Z,4.88
2023-01-29T15:43:01.037Z,1.58
2023-01-29T15:45:33.969Z,4.03
2023-01-29T15:48:13.065Z,1.73
2023-01-29T15:50:42.177Z,2.17
2023-01-29T15:53:15.906Z,2.30
2023-01-29T15:55:43.162Z,2.65
2023-01-29T15:58:17.169Z,3.00
2023-01-29T16:00:55.149Z,1.35
2023-01-29T16:03:24.557Z,1.33
2023-01-29T16:05:52.574Z,2.13
2023-01-29T16:08:22.023Z,2.47
2023-01-29T16:10:54.865Z,1.80
2023-01-29T16:13:25.573Z,1.73
2023-01-29T16:16:01.087Z,1.38
2023-01-29T16:18:42.835Z,1.63
2023-01-29T16:21:26.585Z,1.35
2023-01-29T16:24:09.807Z,2.20
2023-01-29T16:26:39.583Z,1.77
2023-01-29T16:29:13.129Z,2.67
2023-01-29T16:31:40.742Z,1.60
2023-01-29T16:34:10.871Z,1.88
2023-01-29T16:36:37.579Z,3.60
2023-01-29T16:39:14.902Z,1.65
2023-01-29T16:41:41.674Z,2.63
2023-01-29T16:44:20.314Z,2.15
2023-01-29T16:46:48.726Z,2.35
2023-01-29T16:49:30.894Z,1.83
2023-01-29T16:52:17.680Z,1.00
2023-01-29T16:54:44.582Z,2.60
2023-01-29T16:57:16.098Z,2.28
2023-01-29T16:59:43.407Z,3.13
2023-01-29T17:02:33.290Z,1.80
2023-01-29T17:05:08.043Z,2.28
2023-01-29T17:07:36.672Z,2.05
2023-01-29T17:10:06.501Z,1.73
2023-01-29T17:12:34.375Z,6.72
2023-01-29T17:15:04.676Z,2.05
2023-01-29T17:17:36.204Z,3.17
2023-01-29T17:20:15.389Z,1.88
2023-01-29T17:22:42.342Z,1.80
2023-01-29T17:25:19.100Z,1.42
2023-01-29T17:27:51.513Z,1.95
2023-01-29T17:30:21.040Z,1.95
2023-01-29T17:32:48.024Z,1.70
2023-01-29T17:35:16.899Z,2.05
2023-01-29T17:37:44.404Z,2.30
2023-01-29T17:40:36.079Z,2.05
2023-01-29T17:43:02.958Z,1.90
2023-01-29T17:45:29.695Z,1.40
2023-01-29T17:47:56.506Z,2.25
2023-01-29T17:50:26.541Z,1.88
2023-01-29T17:52:53.887Z,2.08
2023-01-29T17:55:21.109Z,3.65
2023-01-29T17:57:48.543Z,1.25
2023-01-29T18:00:21.177Z,1.88
2023-01-29T18:02:48.056Z,3.55
2023-01-29T18:05:16.584Z,2.17
2023-01-29T18:07:46.533Z,1.70
2023-01-29T18:10:17.608Z,2.70
2023-01-29T18:12:44.599Z,2.17
2023-01-29T18:15:12.353Z,0.90
2023-01-29T18:17:39.674Z,1.83
2023-01-29T18:20:36.645Z,0.65
2023-01-29T18:23:06.167Z,0.85
2023-01-29T18:25:34.132Z,1.60
2023-01-29T18:28:01.572Z,0.65
2023-01-29T18:30:28.746Z,0.57
2023-01-29T18:32:55.609Z,1.13
2023-01-29T18:35:22.437Z,1.70
2023-01-29T18:37:49.324Z,1.23
2023-01-29T18:40:17.377Z,3.08
2023-01-29T18:42:45.211Z,1.17
2023-01-29T18:45:13.630Z,1.63
2023-01-29T18:47:40.813Z,1.00
2023-01-29T18:50:08.489Z,2.28
2023-01-29T18:52:35.273Z,2.78
2023-01-29T18:55:02.081Z,2.38
2023-01-29T18:58:26.897Z,0.88
2023-01-29T19:00:16.532Z,3.00
2023-01-29T19:02:45.203Z,1.60
2023-01-29T19:05:11.907Z,1.52
2023-01-29T19:07:38.629Z,1.25
2023-01-29T19:10:09.220Z,1.30
2023-01-29T19:12:35.966Z,3.40
2023-01-29T19:15:02.685Z,0.80
2023-01-29T19:17:29.521Z,1.35
2023-01-29T19:20:01.953Z,2.58
2023-01-29T19:22:29.450Z,2.22
2023-01-29T19:24:56.269Z,3.83
2023-01-29T19:27:23.001Z,3.30
2023-01-29T19:29:50.955Z,1.50
2023-01-29T19:32:18.089Z,1.92
2023-01-29T19:34:45.302Z,1.60
2023-01-29T19:37:12.084Z,1.83
2023-01-29T19:39:38.743Z,2.63
2023-01-29T19:42:05.627Z,1.52
2023-01-29T19:44:32.385Z,3.00
2023-01-29T19:46:59.193Z,2.42
2023-01-29T19:49:26.438Z,2.40
2023-01-29T19:51:55.921Z,1.20
2023-01-29T19:54:22.625Z,1.00
2023-01-29T19:56:49.318Z,1.92
2023-01-29T19:59:16.121Z,1.45
2023-01-29T20:01:42.820Z,4.10
2023-01-29T20:04:09.568Z,1.67
2023-01-29T20:06:36.374Z,1.55
2023-01-29T20:09:04.043Z,1.63
2023-01-29T20:11:31.390Z,3.35
2023-01-29T20:13:58.460Z,2.22
2023-01-29T20:16:26.236Z,6.03
2023-01-29T20:18:52.959Z,1.25
2023-01-29T20:21:20.658Z,3.00
2023-01-29T20:23:50.354Z,2.78
2023-01-29T20:26:17.738Z,1.83
2023-01-29T20:28:48.648Z,5.40
2023-01-29T20:31:16.068Z,3.85
2023-01-29T20:33:42.840Z,2.55
2023-01-29T20:36:14.837Z,8.20
2023-01-29T20:38:41.733Z,3.83
2023-01-29T20:41:12.829Z,1.98
2023-01-29T20:43:39.871Z,2.60
2023-01-29T20:46:06.757Z,2.53
2023-01-29T20:48:33.811Z,1.75
2023-01-29T20:51:09.802Z,1.80
2023-01-29T20:53:37.314Z,3.67
2023-01-29T20:56:04.834Z,1.45
2023-01-29T20:58:32.010Z,2.45
2023-01-29T21:00:58.995Z,1.92
2023-01-29T21:03:25.968Z,1.33
2023-01-29T21:05:54.257Z,3.70
2023-01-29T21:08:22.163Z,3.50
2023-01-29T21:10:51.678Z,2.40
2023-01-29T21:13:18.980Z,3.78
2023-01-29T21:15:45.821Z,1.75
2023-01-29T21:18:12.572Z,1.85
2023-01-29T21:20:39.266Z,4.30
2023-01-29T21:23:07.183Z,2.20
2023-01-29T21:25:34.396Z,4.55
2023-01-29T21:28:02.797Z,4.57
2023-01-29T21:30:29.595Z,3.95
2023-01-29T21:32:56.302Z,2.15
2023-01-29T21:35:22.983Z,2.22
2023-01-29T21:37:49.644Z,2.17
2023-01-29T21:40:17.025Z,2.17
2023-01-29T21:43:02.674Z,3.67
2023-01-29T21:45:29.479Z,1.85
2023-01-29T21:47:56.160Z,3.53
2023-01-29T21:50:22.951Z,2.33
2023-01-29T21:52:49.636Z,3.50
2023-01-29T21:55:16.458Z,2.00
2023-01-29T21:57:43.140Z,3.95
2023-01-29T22:00:12.000Z,2.53
2023-01-29T22:02:39.176Z,5.45
2023-01-29T22:05:18.275Z,3.30
2023-01-29T22:07:46.736Z,5.38
2023-01-29T22:10:13.801Z,3.75
2023-01-29T22:12:40.828Z,2.22
2023-01-29T22:15:09.222Z,4.45
2023-01-29T22:17:35.911Z,3.42
2023-01-29T22:20:02.958Z,4.22
2023-01-29T22:22:29.717Z,7.05
2023-01-29T22:24:58.386Z,2.78
2023-01-29T22:27:25.215Z,3.92
2023-01-29T22:29:51.932Z,4.10
2023-01-29T22:32:18.692Z,3.00
2023-01-29T22:34:45.602Z,3.65
2023-01-29T22:37:12.314Z,4.22
2023-01-29T22:39:39.074Z,3.90
2023-01-29T22:42:05.829Z,3.05
2023-01-29T22:44:32.517Z,6.13
2023-01-29T22:46:59.692Z,3.53
2023-01-29T22:49:29.387Z,2.28
2023-01-29T22:52:11.552Z,3.15
2023-01-29T22:54:40.096Z,2.08
2023-01-29T22:57:09.897Z,3.63
2023-01-29T22:59:36.580Z,4.00
2023-01-29T23:02:03.472Z,9.50
2023-01-29T23:04:30.199Z,13.35
2023-01-29T23:06:57.063Z,1.65
2023-01-29T23:09:23.983Z,3.55
2023-01-29T23:11:50.715Z,3.13
2023-01-29T23:14:17.586Z,3.50
2023-01-29T23:16:44.315Z,3.83
2023-01-29T23:19:12.221Z,8.77
2023-01-29T23:21:39.839Z,4.40
2023-01-29T23:24:07.779Z,2.63
2023-01-29T23:26:53.222Z,8.07
2023-01-29T23:29:20.311Z,3.17
2023-01-29T23:31:47.191Z,5.38
2023-01-29T23:34:14.281Z,3.60
2023-01-29T23:36:41.275Z,4.60
2023-01-29T23:39:08.225Z,3.95
2023-01-29T23:41:35.344Z,4.45
2023-01-29T23:44:02.154Z,4.45
2023-01-29T23:46:28.880Z,5.18
2023-01-29T23:48:55.576Z,4.40
2023-01-29T23:51:22.422Z,4.13
2023-01-29T23:53:49.298Z,3.95
2023-01-29T23:56:16.075Z,3.13
2023-01-29T23:58:42.814Z,10.07
